sensor_id;sensor_type;location;lat;lon;timestamp;pressure;altitude;pressure_sealevel;temperature;humidity
69689;BME280;56932;38.402;-96.176;2022-08-01T00:00:10;97461.72;;;25.69;25.20
69689;BME280;56932;38.402;-96.176;2022-08-01T00:02:34;97462.45;;;25.84;24.93
69689;BME280;56932;38.402;-96.176;2022-08-01T00:05:00;97460.45;;;25.95;24.93
69689;BME280;56932;38.402;-96.176;2022-08-01T00:07:25;97460.38;;;25.69;25.00
69689;BME280;56932;38.402;-96.176;2022-08-01T00:09:50;97461.37;;;25.89;24.70
69689;BME280;56932;38.402;-96.176;2022-08-01T00:12:16;97464.64;;;25.95;24.88
69689;BME280;56932;38.402;-96.176;2022-08-01T00:14:41;97463.73;;;26.33;24.59
69689;BME280;56932;38.402;-96.176;2022-08-01T00:17:07;97460.48;;;25.96;24.91
69689;BME280;56932;38.402;-96.176;2022-08-01T00:19:32;97460.86;;;25.96;24.88
69689;BME280;56932;38.402;-96.176;2022-08-01T00:21:58;97460.03;;;26.03;24.90
69689;BME280;56932;38.402;-96.176;2022-08-01T00:24:23;97464.32;;;25.76;25.24
69689;BME280;56932;38.402;-96.176;2022-08-01T00:26:49;97460.89;;;25.86;25.03
69689;BME280;56932;38.402;-96.176;2022-08-01T00:29:14;97461.04;;;25.85;25.10
69689;BME280;56932;38.402;-96.176;2022-08-01T00:31:40;97454.77;;;25.89;24.81
69689;BME280;56932;38.402;-96.176;2022-08-01T00:34:05;97452.79;;;26.00;24.83
69689;BME280;56932;38.402;-96.176;2022-08-01T00:36:31;97457.45;;;25.67;25.13
69689;BME280;56932;38.402;-96.176;2022-08-01T00:38:56;97458.02;;;25.58;25.24
69689;BME280;56932;38.402;-96.176;2022-08-01T00:41:21;97457.96;;;25.53;25.13
69689;BME280;56932;38.402;-96.176;2022-08-01T00:43:47;97460.42;;;25.37;25.35
69689;BME280;56932;38.402;-96.176;2022-08-01T00:46:12;97462.85;;;25.63;24.97
69689;BME280;56932;38.402;-96.176;2022-08-01T00:48:38;97459.17;;;25.42;25.23
69689;BME280;56932;38.402;-96.176;2022-08-01T00:51:05;97461.37;;;25.95;24.45
69689;BME280;56932;38.402;-96.176;2022-08-01T00:53:29;97459.73;;;25.27;25.02
69689;BME280;56932;38.402;-96.176;2022-08-01T00:55:54;97461.68;;;25.69;24.69
69689;BME280;56932;38.402;-96.176;2022-08-01T00:58:20;97465.48;;;25.44;24.67
69689;BME280;56932;38.402;-96.176;2022-08-01T01:00:45;97467.12;;;26.03;24.15
69689;BME280;56932;38.402;-96.176;2022-08-01T01:03:10;97466.71;;;25.72;24.63
69689;BME280;56932;38.402;-96.176;2022-08-01T01:05:43;97465.46;;;25.75;24.44
69689;BME280;56932;38.402;-96.176;2022-08-01T01:08:04;97460.67;;;25.52;24.85
69689;BME280;56932;38.402;-96.176;2022-08-01T01:10:32;97464.20;;;24.90;25.35
69689;BME280;56932;38.402;-96.176;2022-08-01T01:12:59;97466.46;;;24.64;25.88
69689;BME280;56932;38.402;-96.176;2022-08-01T01:15:23;97465.99;;;23.07;28.23
69689;BME280;56932;38.402;-96.176;2022-08-01T01:17:48;97466.85;;;23.35;29.46
69689;BME280;56932;38.402;-96.176;2022-08-01T01:20:13;97470.85;;;22.68;29.25
69689;BME280;56932;38.402;-96.176;2022-08-01T01:22:49;97472.11;;;22.32;29.33
69689;BME280;56932;38.402;-96.176;2022-08-01T01:25:10;97474.76;;;22.33;29.61
69689;BME280;56932;38.402;-96.176;2022-08-01T01:27:33;97471.29;;;22.70;29.03
69689;BME280;56932;38.402;-96.176;2022-08-01T01:29:54;97472.94;;;22.11;29.75
69689;BME280;56932;38.402;-96.176;2022-08-01T01:32:19;97472.77;;;21.53;30.00
69689;BME280;56932;38.402;-96.176;2022-08-01T01:34:44;97475.90;;;22.10;29.53
69689;BME280;56932;38.402;-96.176;2022-08-01T01:37:08;97473.90;;;22.71;28.77
69689;BME280;56932;38.402;-96.176;2022-08-01T01:39:33;97478.58;;;22.05;29.56
69689;BME280;56932;38.402;-96.176;2022-08-01T01:41:58;97478.18;;;22.22;29.55
69689;BME280;56932;38.402;-96.176;2022-08-01T01:44:25;97475.23;;;21.87;29.52
69689;BME280;56932;38.402;-96.176;2022-08-01T01:46:51;97476.36;;;22.05;29.34
69689;BME280;56932;38.402;-96.176;2022-08-01T01:49:14;97476.22;;;21.92;29.27
69689;BME280;56932;38.402;-96.176;2022-08-01T01:51:42;97477.10;;;22.08;29.06
69689;BME280;56932;38.402;-96.176;2022-08-01T01:54:07;97477.53;;;21.72;29.48
69689;BME280;56932;38.402;-96.176;2022-08-01T01:56:31;97476.68;;;21.60;29.55
69689;BME280;56932;38.402;-96.176;2022-08-01T01:58:59;97479.75;;;21.97;29.16
69689;BME280;56932;38.402;-96.176;2022-08-01T02:01:23;97478.18;;;21.82;29.40
69689;BME280;56932;38.402;-96.176;2022-08-01T02:03:48;97485.58;;;21.72;29.07
69689;BME280;56932;38.402;-96.176;2022-08-01T02:06:14;97485.92;;;21.48;29.19
69689;BME280;56932;38.402;-96.176;2022-08-01T02:08:38;97489.25;;;21.82;28.74
69689;BME280;56932;38.402;-96.176;2022-08-01T02:11:04;97494.05;;;21.89;28.47
69689;BME280;56932;38.402;-96.176;2022-08-01T02:13:29;97497.64;;;21.50;29.10
69689;BME280;56932;38.402;-96.176;2022-08-01T02:15:54;97504.45;;;21.39;28.95
69689;BME280;56932;38.402;-96.176;2022-08-01T02:18:19;97503.53;;;21.50;28.88
69689;BME280;56932;38.402;-96.176;2022-08-01T02:20:46;97501.24;;;21.16;29.41
69689;BME280;56932;38.402;-96.176;2022-08-01T02:23:12;97504.82;;;21.27;29.00
69689;BME280;56932;38.402;-96.176;2022-08-01T02:25:42;97505.79;;;21.63;28.62
69689;BME280;56932;38.402;-96.176;2022-08-01T02:28:05;97508.42;;;21.24;28.92
69689;BME280;56932;38.402;-96.176;2022-08-01T02:30:30;97508.94;;;20.92;29.35
69689;BME280;56932;38.402;-96.176;2022-08-01T02:32:58;97513.57;;;21.21;28.61
69689;BME280;56932;38.402;-96.176;2022-08-01T02:35:23;97514.98;;;21.63;27.88
69689;BME280;56932;38.402;-96.176;2022-08-01T02:37:44;97520.60;;;21.07;28.61
69689;BME280;56932;38.402;-96.176;2022-08-01T02:40:11;97526.63;;;20.95;28.99
69689;BME280;56932;38.402;-96.176;2022-08-01T02:42:35;97527.87;;;21.26;28.63
69689;BME280;56932;38.402;-96.176;2022-08-01T02:45:00;97532.04;;;21.40;28.81
69689;BME280;56932;38.402;-96.176;2022-08-01T02:47:28;97537.56;;;20.45;29.70
69689;BME280;56932;38.402;-96.176;2022-08-01T02:49:52;97536.46;;;21.21;28.95
69689;BME280;56932;38.402;-96.176;2022-08-01T02:52:17;97540.34;;;20.77;29.03
69689;BME280;56932;38.402;-96.176;2022-08-01T02:54:43;97540.97;;;20.43;29.72
69689;BME280;56932;38.402;-96.176;2022-08-01T02:57:08;97541.45;;;20.05;30.00
69689;BME280;56932;38.402;-96.176;2022-08-01T02:59:35;97545.13;;;20.90;29.65
69689;BME280;56932;38.402;-96.176;2022-08-01T03:01:59;97547.78;;;21.03;28.70
69689;BME280;56932;38.402;-96.176;2022-08-01T03:04:24;97545.86;;;20.47;29.21
69689;BME280;56932;38.402;-96.176;2022-08-01T03:06:51;97546.82;;;20.38;29.63
69689;BME280;56932;38.402;-96.176;2022-08-01T03:09:15;97547.17;;;20.30;29.85
69689;BME280;56932;38.402;-96.176;2022-08-01T03:11:42;97551.28;;;20.22;29.89
69689;BME280;56932;38.402;-96.176;2022-08-01T03:14:09;97558.45;;;21.06;29.10
69689;BME280;56932;38.402;-96.176;2022-08-01T03:16:33;97557.70;;;21.09;28.78
69689;BME280;56932;38.402;-96.176;2022-08-01T03:18:57;97557.85;;;21.22;28.37
69689;BME280;56932;38.402;-96.176;2022-08-01T03:21:23;97557.26;;;20.76;29.11
69689;BME280;56932;38.402;-96.176;2022-08-01T03:23:48;97554.05;;;20.23;29.28
69689;BME280;56932;38.402;-96.176;2022-08-01T03:26:13;97553.80;;;20.69;28.96
69689;BME280;56932;38.402;-96.176;2022-08-01T03:28:39;97554.45;;;20.39;29.26
69689;BME280;56932;38.402;-96.176;2022-08-01T03:31:04;97556.59;;;20.08;29.47
69689;BME280;56932;38.402;-96.176;2022-08-01T03:33:30;97555.15;;;19.94;29.94
69689;BME280;56932;38.402;-96.176;2022-08-01T03:35:56;97554.81;;;20.32;29.23
69689;BME280;56932;38.402;-96.176;2022-08-01T03:38:23;97556.89;;;20.42;29.06
69689;BME280;56932;38.402;-96.176;2022-08-01T03:40:49;97560.40;;;20.56;28.80
69689;BME280;56932;38.402;-96.176;2022-08-01T03:43:17;97562.14;;;20.12;29.27
69689;BME280;56932;38.402;-96.176;2022-08-01T03:45:40;97562.62;;;20.37;28.94
69689;BME280;56932;38.402;-96.176;2022-08-01T03:48:06;97567.54;;;20.90;28.38
69689;BME280;56932;38.402;-96.176;2022-08-01T03:50:29;97567.42;;;20.05;29.13
69689;BME280;56932;38.402;-96.176;2022-08-01T03:52:55;97567.75;;;19.95;29.24
69689;BME280;56932;38.402;-96.176;2022-08-01T03:55:19;97568.79;;;20.11;29.57
69689;BME280;56932;38.402;-96.176;2022-08-01T03:57:45;97570.02;;;19.99;29.65
69689;BME280;56932;38.402;-96.176;2022-08-01T04:00:11;97571.62;;;19.88;29.41
69689;BME280;56932;38.402;-96.176;2022-08-01T04:02:36;97577.45;;;20.79;28.88
69689;BME280;56932;38.402;-96.176;2022-08-01T04:05:02;97575.55;;;20.19;29.20
69689;BME280;56932;38.402;-96.176;2022-08-01T04:07:28;97579.40;;;20.26;28.86
69689;BME280;56932;38.402;-96.176;2022-08-01T04:09:52;97577.80;;;20.04;29.15
69689;BME280;56932;38.402;-96.176;2022-08-01T04:12:17;97578.10;;;19.67;29.80
69689;BME280;56932;38.402;-96.176;2022-08-01T04:14:43;97576.57;;;20.36;28.99
69689;BME280;56932;38.402;-96.176;2022-08-01T04:17:08;97575.76;;;19.84;29.59
69689;BME280;56932;38.402;-96.176;2022-08-01T04:19:34;97578.72;;;20.07;29.85
69689;BME280;56932;38.402;-96.176;2022-08-01T04:22:00;97576.49;;;19.98;29.36
69689;BME280;56932;38.402;-96.176;2022-08-01T04:24:26;97577.07;;;20.02;29.58
69689;BME280;56932;38.402;-96.176;2022-08-01T04:26:51;97576.90;;;19.74;29.81
69689;BME280;56932;38.402;-96.176;2022-08-01T04:29:17;97576.98;;;19.32;29.87
69689;BME280;56932;38.402;-96.176;2022-08-01T04:31:43;97575.40;;;19.90;29.53
69689;BME280;56932;38.402;-96.176;2022-08-01T04:34:07;97577.11;;;20.52;28.98
69689;BME280;56932;38.402;-96.176;2022-08-01T04:36:35;97579.61;;;19.68;29.49
69689;BME280;56932;38.402;-96.176;2022-08-01T04:39:00;97576.36;;;19.91;29.25
69689;BME280;56932;38.402;-96.176;2022-08-01T04:41:24;97575.82;;;19.98;29.36
69689;BME280;56932;38.402;-96.176;2022-08-01T04:43:49;97574.84;;;19.37;30.08
69689;BME280;56932;38.402;-96.176;2022-08-01T04:46:15;97572.35;;;19.97;29.68
69689;BME280;56932;38.402;-96.176;2022-08-01T04:48:40;97573.35;;;19.53;29.76
69689;BME280;56932;38.402;-96.176;2022-08-01T04:51:12;97572.51;;;19.75;29.51
69689;BME280;56932;38.402;-96.176;2022-08-01T04:53:31;97576.59;;;19.73;29.70
69689;BME280;56932;38.402;-96.176;2022-08-01T04:55:56;97571.32;;;19.62;29.67
69689;BME280;56932;38.402;-96.176;2022-08-01T04:58:22;97568.33;;;19.61;29.09
69689;BME280;56932;38.402;-96.176;2022-08-01T05:00:48;97569.38;;;19.78;29.78
69689;BME280;56932;38.402;-96.176;2022-08-01T05:03:13;97570.35;;;20.58;29.44
69689;BME280;56932;38.402;-96.176;2022-08-01T05:05:38;97569.05;;;20.67;29.94
69689;BME280;56932;38.402;-96.176;2022-08-01T05:08:04;97575.03;;;20.81;29.97
69689;BME280;56932;38.402;-96.176;2022-08-01T05:10:29;97573.36;;;20.82;30.42
69689;BME280;56932;38.402;-96.176;2022-08-01T05:12:55;97576.89;;;21.11;30.19
69689;BME280;56932;38.402;-96.176;2022-08-01T05:15:20;97571.25;;;21.41;30.19
69689;BME280;56932;38.402;-96.176;2022-08-01T05:17:46;97572.52;;;21.17;30.78
69689;BME280;56932;38.402;-96.176;2022-08-01T05:20:11;97571.72;;;21.27;31.30
69689;BME280;56932;38.402;-96.176;2022-08-01T05:22:37;97568.96;;;21.63;30.89
69689;BME280;56932;38.402;-96.176;2022-08-01T05:25:03;97566.46;;;21.48;31.32
69689;BME280;56932;38.402;-96.176;2022-08-01T05:27:28;97567.69;;;22.05;31.26
69689;BME280;56932;38.402;-96.176;2022-08-01T05:29:53;97569.25;;;21.84;31.15
69689;BME280;56932;38.402;-96.176;2022-08-01T05:32:19;97567.06;;;21.66;31.67
69689;BME280;56932;38.402;-96.176;2022-08-01T05:34:44;97567.22;;;21.78;31.75
69689;BME280;56932;38.402;-96.176;2022-08-01T05:37:10;97564.12;;;22.32;31.63
69689;BME280;56932;38.402;-96.176;2022-08-01T05:39:35;97563.76;;;22.84;31.22
69689;BME280;56932;38.402;-96.176;2022-08-01T05:42:00;97556.49;;;21.98;32.13
69689;BME280;56932;38.402;-96.176;2022-08-01T05:44:26;97561.29;;;22.32;32.15
69689;BME280;56932;38.402;-96.176;2022-08-01T05:46:52;97563.10;;;21.60;32.89
69689;BME280;56932;38.402;-96.176;2022-08-01T05:49:17;97569.00;;;22.52;31.97
69689;BME280;56932;38.402;-96.176;2022-08-01T05:51:42;97565.92;;;22.39;32.53
69689;BME280;56932;38.402;-96.176;2022-08-01T05:54:08;97565.92;;;22.29;32.49
69689;BME280;56932;38.402;-96.176;2022-08-01T05:56:33;97570.11;;;21.84;33.18
69689;BME280;56932;38.402;-96.176;2022-08-01T05:58:59;97567.35;;;21.82;33.35
69689;BME280;56932;38.402;-96.176;2022-08-01T06:01:24;97563.56;;;22.32;32.90
69689;BME280;56932;38.402;-96.176;2022-08-01T06:03:50;97563.60;;;21.90;33.57
69689;BME280;56932;38.402;-96.176;2022-08-01T06:06:15;97569.19;;;22.13;32.82
69689;BME280;56932;38.402;-96.176;2022-08-01T06:08:41;97566.50;;;22.20;33.42
69689;BME280;56932;38.402;-96.176;2022-08-01T06:11:06;97564.93;;;22.06;33.68
69689;BME280;56932;38.402;-96.176;2022-08-01T06:13:31;97562.43;;;21.63;33.69
69689;BME280;56932;38.402;-96.176;2022-08-01T06:15:57;97564.88;;;22.49;33.36
69689;BME280;56932;38.402;-96.176;2022-08-01T06:18:23;97567.43;;;22.12;34.26
69689;BME280;56932;38.402;-96.176;2022-08-01T06:20:48;97562.29;;;22.27;33.94
69689;BME280;56932;38.402;-96.176;2022-08-01T06:23:14;97562.97;;;22.01;34.35
69689;BME280;56932;38.402;-96.176;2022-08-01T06:25:39;97568.23;;;22.03;34.15
69689;BME280;56932;38.402;-96.176;2022-08-01T06:28:04;97569.10;;;22.36;34.05
69689;BME280;56932;38.402;-96.176;2022-08-01T06:30:30;97571.17;;;22.53;33.97
69689;BME280;56932;38.402;-96.176;2022-08-01T06:32:55;97572.24;;;22.53;34.08
69689;BME280;56932;38.402;-96.176;2022-08-01T06:35:21;97563.07;;;22.28;34.48
69689;BME280;56932;38.402;-96.176;2022-08-01T06:37:46;97563.76;;;22.38;34.42
69689;BME280;56932;38.402;-96.176;2022-08-01T06:40:12;97560.66;;;22.38;34.57
69689;BME280;56932;38.402;-96.176;2022-08-01T06:42:37;97562.71;;;22.44;34.64
69689;BME280;56932;38.402;-96.176;2022-08-01T06:45:03;97560.08;;;22.52;34.60
69689;BME280;56932;38.402;-96.176;2022-08-01T06:47:28;97561.97;;;22.73;33.83
69689;BME280;56932;38.402;-96.176;2022-08-01T06:49:53;97561.94;;;22.50;34.81
69689;BME280;56932;38.402;-96.176;2022-08-01T06:52:19;97561.02;;;22.37;34.82
69689;BME280;56932;38.402;-96.176;2022-08-01T06:54:44;97563.65;;;22.39;34.86
69689;BME280;56932;38.402;-96.176;2022-08-01T06:57:10;97561.15;;;22.18;34.97
69689;BME280;56932;38.402;-96.176;2022-08-01T06:59:35;97557.75;;;21.95;34.17
69689;BME280;56932;38.402;-96.176;2022-08-01T07:02:01;97557.35;;;21.38;34.12
69689;BME280;56932;38.402;-96.176;2022-08-01T07:04:26;97559.40;;;21.11;33.93
69689;BME280;56932;38.402;-96.176;2022-08-01T07:06:52;97553.58;;;21.75;32.84
69689;BME280;56932;38.402;-96.176;2022-08-01T07:09:17;97554.16;;;21.15;32.41
69689;BME280;56932;38.402;-96.176;2022-08-01T07:11:43;97553.95;;;20.92;32.76
69689;BME280;56932;38.402;-96.176;2022-08-01T07:14:08;97553.59;;;20.98;31.97
69689;BME280;56932;38.402;-96.176;2022-08-01T07:16:34;97552.06;;;20.38;32.25
69689;BME280;56932;38.402;-96.176;2022-08-01T07:18:59;97547.50;;;20.85;31.72
69689;BME280;56932;38.402;-96.176;2022-08-01T07:21:25;97541.80;;;20.46;31.57
69689;BME280;56932;38.402;-96.176;2022-08-01T07:23:50;97544.06;;;20.64;31.41
69689;BME280;56932;38.402;-96.176;2022-08-01T07:26:16;97547.81;;;20.53;30.92
69689;BME280;56932;38.402;-96.176;2022-08-01T07:28:41;97548.39;;;20.73;30.78
69689;BME280;56932;38.402;-96.176;2022-08-01T07:31:07;97544.97;;;20.86;30.38
69689;BME280;56932;38.402;-96.176;2022-08-01T07:33:32;97541.01;;;20.32;30.40
69689;BME280;56932;38.402;-96.176;2022-08-01T07:35:58;97539.60;;;20.52;30.63
69689;BME280;56932;38.402;-96.176;2022-08-01T07:38:23;97536.12;;;20.70;30.00
69689;BME280;56932;38.402;-96.176;2022-08-01T07:40:49;97534.89;;;20.62;29.88
69689;BME280;56932;38.402;-96.176;2022-08-01T07:43:14;97536.31;;;20.92;29.19
69689;BME280;56932;38.402;-96.176;2022-08-01T07:45:40;97531.23;;;20.77;29.76
69689;BME280;56932;38.402;-96.176;2022-08-01T07:48:06;97534.58;;;20.19;29.90
69689;BME280;56932;38.402;-96.176;2022-08-01T07:50:30;97529.90;;;20.10;29.89
69689;BME280;56932;38.402;-96.176;2022-08-01T07:52:56;97533.20;;;19.97;29.91
69689;BME280;56932;38.402;-96.176;2022-08-01T07:55:21;97528.60;;;19.93;30.30
69689;BME280;56932;38.402;-96.176;2022-08-01T07:57:47;97526.41;;;20.37;29.97
69689;BME280;56932;38.402;-96.176;2022-08-01T08:00:13;97525.22;;;20.95;29.20
69689;BME280;56932;38.402;-96.176;2022-08-01T08:02:38;97519.90;;;19.67;30.03
69689;BME280;56932;38.402;-96.176;2022-08-01T08:05:04;97516.24;;;20.34;29.19
69689;BME280;56932;38.402;-96.176;2022-08-01T08:07:29;97513.16;;;19.60;29.94
69689;BME280;56932;38.402;-96.176;2022-08-01T08:09:54;97515.36;;;19.73;30.05
69689;BME280;56932;38.402;-96.176;2022-08-01T08:12:20;97512.56;;;19.66;30.14
69689;BME280;56932;38.402;-96.176;2022-08-01T08:14:45;97519.06;;;19.77;29.68
69689;BME280;56932;38.402;-96.176;2022-08-01T08:17:11;97512.87;;;19.85;29.26
69689;BME280;56932;38.402;-96.176;2022-08-01T08:19:36;97516.07;;;19.71;29.29
69689;BME280;56932;38.402;-96.176;2022-08-01T08:22:02;97518.53;;;19.67;29.73
69689;BME280;56932;38.402;-96.176;2022-08-01T08:24:27;97518.69;;;19.71;29.66
69689;BME280;56932;38.402;-96.176;2022-08-01T08:26:55;97517.92;;;19.37;30.05
69689;BME280;56932;38.402;-96.176;2022-08-01T08:29:18;97516.69;;;19.88;28.93
69689;BME280;56932;38.402;-96.176;2022-08-01T08:31:44;97518.68;;;19.56;29.98
69689;BME280;56932;38.402;-96.176;2022-08-01T08:34:09;97514.35;;;19.52;29.60
69689;BME280;56932;38.402;-96.176;2022-08-01T08:36:35;97511.27;;;19.29;29.73
69689;BME280;56932;38.402;-96.176;2022-08-01T08:39:00;97510.08;;;19.25;29.75
69689;BME280;56932;38.402;-96.176;2022-08-01T08:41:25;97511.07;;;19.72;29.24
69689;BME280;56932;38.402;-96.176;2022-08-01T08:43:51;97515.24;;;19.37;29.59
69689;BME280;56932;38.402;-96.176;2022-08-01T08:46:17;97511.58;;;19.15;29.77
69689;BME280;56932;38.402;-96.176;2022-08-01T08:48:42;97513.53;;;19.95;29.27
69689;BME280;56932;38.402;-96.176;2022-08-01T08:51:08;97515.16;;;19.29;29.88
69689;BME280;56932;38.402;-96.176;2022-08-01T08:53:33;97518.39;;;19.04;29.85
69689;BME280;56932;38.402;-96.176;2022-08-01T08:55:59;97517.69;;;19.59;29.99
69689;BME280;56932;38.402;-96.176;2022-08-01T08:58:26;97518.73;;;20.48;29.68
69689;BME280;56932;38.402;-96.176;2022-08-01T09:00:49;97519.41;;;20.34;29.89
69689;BME280;56932;38.402;-96.176;2022-08-01T09:03:15;97520.02;;;20.38;30.30
69689;BME280;56932;38.402;-96.176;2022-08-01T09:05:40;97525.79;;;20.97;30.28
69689;BME280;56932;38.402;-96.176;2022-08-01T09:08:07;97524.95;;;20.63;30.66
69689;BME280;56932;38.402;-96.176;2022-08-01T09:10:31;97523.37;;;21.16;30.38
69689;BME280;56932;38.402;-96.176;2022-08-01T09:13:03;97530.75;;;20.96;30.90
69689;BME280;56932;38.402;-96.176;2022-08-01T09:17:48;97528.28;;;20.80;31.24
69689;BME280;56932;38.402;-96.176;2022-08-01T09:20:22;97531.26;;;21.35;31.16
69689;BME280;56932;38.402;-96.176;2022-08-01T09:22:38;97529.01;;;21.00;31.43
69689;BME280;56932;38.402;-96.176;2022-08-01T09:25:06;97524.53;;;21.33;31.56
69689;BME280;56932;38.402;-96.176;2022-08-01T09:27:30;97524.58;;;21.23;31.26
69689;BME280;56932;38.402;-96.176;2022-08-01T09:32:21;97520.73;;;21.31;31.82
69689;BME280;56932;38.402;-96.176;2022-08-01T09:34:46;97521.17;;;21.59;31.37
69689;BME280;56932;38.402;-96.176;2022-08-01T09:37:12;97518.81;;;21.78;31.91
69689;BME280;56932;38.402;-96.176;2022-08-01T09:39:38;97516.17;;;21.42;32.14
69689;BME280;56932;38.402;-96.176;2022-08-01T09:46:55;97518.27;;;21.65;32.32
69689;BME280;56932;38.402;-96.176;2022-08-01T09:49:27;97515.60;;;21.45;32.68
69689;BME280;56932;38.402;-96.176;2022-08-01T09:51:45;97514.51;;;21.90;32.28
69689;BME280;56932;38.402;-96.176;2022-08-01T09:54:10;97513.51;;;21.47;33.19
69689;BME280;56932;38.402;-96.176;2022-08-01T09:56:38;97515.85;;;21.35;33.16
69689;BME280;56932;38.402;-96.176;2022-08-01T09:59:01;97520.26;;;21.78;33.12
69689;BME280;56932;38.402;-96.176;2022-08-01T10:01:27;97516.59;;;21.82;32.83
69689;BME280;56932;38.402;-96.176;2022-08-01T10:06:21;97510.81;;;21.40;33.20
69689;BME280;56932;38.402;-96.176;2022-08-01T10:08:46;97503.63;;;21.77;33.10
69689;BME280;56932;38.402;-96.176;2022-08-01T10:11:10;97504.69;;;21.91;33.04
69689;BME280;56932;38.402;-96.176;2022-08-01T10:13:34;97497.30;;;21.61;33.48
69689;BME280;56932;38.402;-96.176;2022-08-01T10:16:00;97497.68;;;21.80;33.33
69689;BME280;56932;38.402;-96.176;2022-08-01T10:18:25;97500.65;;;22.11;32.82
69689;BME280;56932;38.402;-96.176;2022-08-01T10:20:50;97494.75;;;21.92;33.36
69689;BME280;56932;38.402;-96.176;2022-08-01T10:23:16;97494.37;;;22.42;32.60
69689;BME280;56932;38.402;-96.176;2022-08-01T10:25:43;97494.49;;;21.95;33.54
69689;BME280;56932;38.402;-96.176;2022-08-01T10:28:13;97494.48;;;21.80;33.81
69689;BME280;56932;38.402;-96.176;2022-08-01T10:30:32;97495.85;;;21.55;33.90
69689;BME280;56932;38.402;-96.176;2022-08-01T10:32:58;97501.63;;;21.94;33.80
69689;BME280;56932;38.402;-96.176;2022-08-01T10:35:23;97500.12;;;21.76;34.12
69689;BME280;56932;38.402;-96.176;2022-08-01T10:37:48;97506.42;;;21.92;33.99
69689;BME280;56932;38.402;-96.176;2022-08-01T10:40:14;97503.82;;;21.71;34.05
69689;BME280;56932;38.402;-96.176;2022-08-01T10:42:41;97501.62;;;21.76;34.34
69689;BME280;56932;38.402;-96.176;2022-08-01T10:45:06;97504.13;;;21.99;34.10
69689;BME280;56932;38.402;-96.176;2022-08-01T10:47:37;97516.05;;;22.29;33.49
69689;BME280;56932;38.402;-96.176;2022-08-01T10:50:02;97519.50;;;22.62;33.16
69689;BME280;56932;38.402;-96.176;2022-08-01T10:52:21;97522.10;;;22.53;33.33
69689;BME280;56932;38.402;-96.176;2022-08-01T10:54:47;97523.11;;;22.16;34.12
69689;BME280;56932;38.402;-96.176;2022-08-01T10:57:13;97525.74;;;21.97;34.42
69689;BME280;56932;38.402;-96.176;2022-08-01T11:02:04;97529.74;;;22.50;33.38
69689;BME280;56932;38.402;-96.176;2022-08-01T11:04:44;97529.22;;;21.96;34.32
69689;BME280;56932;38.402;-96.176;2022-08-01T11:07:03;97531.63;;;22.18;34.12
69689;BME280;56932;38.402;-96.176;2022-08-01T11:09:26;97532.67;;;22.23;33.78
69689;BME280;56932;38.402;-96.176;2022-08-01T11:14:11;97529.93;;;22.13;34.33
69689;BME280;56932;38.402;-96.176;2022-08-01T11:16:37;97531.82;;;22.26;34.22
69689;BME280;56932;38.402;-96.176;2022-08-01T11:19:03;97532.17;;;22.23;34.34
69689;BME280;56932;38.402;-96.176;2022-08-01T11:23:53;97535.85;;;22.56;34.29
69689;BME280;56932;38.402;-96.176;2022-08-01T11:26:18;97537.16;;;22.66;33.66
69689;BME280;56932;38.402;-96.176;2022-08-01T11:28:46;97541.50;;;22.39;33.62
69689;BME280;56932;38.402;-96.176;2022-08-01T11:38:27;97549.41;;;22.18;34.91
69689;BME280;56932;38.402;-96.176;2022-08-01T11:43:18;97555.57;;;22.36;34.55
69689;BME280;56932;38.402;-96.176;2022-08-01T11:45:48;97555.20;;;22.33;35.04
69689;BME280;56932;38.402;-96.176;2022-08-01T11:50:34;97556.11;;;22.29;34.88
69689;BME280;56932;38.402;-96.176;2022-08-01T11:52:59;97562.95;;;22.36;35.17
69689;BME280;56932;38.402;-96.176;2022-08-01T11:55:24;97562.64;;;22.45;34.86
69689;BME280;56932;38.402;-96.176;2022-08-01T11:57:49;97565.94;;;22.60;35.02
69689;BME280;56932;38.402;-96.176;2022-08-01T12:00:17;97565.79;;;22.26;35.49
69689;BME280;56932;38.402;-96.176;2022-08-01T12:02:40;97569.41;;;22.39;35.44
69689;BME280;56932;38.402;-96.176;2022-08-01T12:05:08;97569.11;;;22.50;35.36
69689;BME280;56932;38.402;-96.176;2022-08-01T12:07:32;97573.79;;;22.80;35.08
69689;BME280;56932;38.402;-96.176;2022-08-01T12:09:59;97577.65;;;22.64;35.38
69689;BME280;56932;38.402;-96.176;2022-08-01T12:12:22;97579.17;;;22.64;35.49
69689;BME280;56932;38.402;-96.176;2022-08-01T12:14:54;97579.09;;;22.59;35.32
69689;BME280;56932;38.402;-96.176;2022-08-01T12:17:13;97578.47;;;22.79;35.45
69689;BME280;56932;38.402;-96.176;2022-08-01T12:19:38;97576.23;;;22.90;34.69
69689;BME280;56932;38.402;-96.176;2022-08-01T12:22:09;97579.86;;;22.24;35.60
69689;BME280;56932;38.402;-96.176;2022-08-01T12:24:29;97577.67;;;22.86;34.82
69689;BME280;56932;38.402;-96.176;2022-08-01T12:26:55;97575.77;;;22.96;35.39
69689;BME280;56932;38.402;-96.176;2022-08-01T12:31:46;97586.67;;;22.87;35.60
69689;BME280;56932;38.402;-96.176;2022-08-01T12:36:37;97590.16;;;22.81;35.53
69689;BME280;56932;38.402;-96.176;2022-08-01T12:39:02;97591.82;;;23.08;35.03
69689;BME280;56932;38.402;-96.176;2022-08-01T12:41:28;97588.95;;;23.21;35.15
69689;BME280;56932;38.402;-96.176;2022-08-01T12:43:53;97584.13;;;22.99;35.79
69689;BME280;56932;38.402;-96.176;2022-08-01T12:46:18;97579.68;;;22.99;35.51
69689;BME280;56932;38.402;-96.176;2022-08-01T12:48:44;97580.48;;;22.56;36.16
69689;BME280;56932;38.402;-96.176;2022-08-01T12:51:09;97580.72;;;22.89;35.98
69689;BME280;56932;38.402;-96.176;2022-08-01T12:53:35;97581.82;;;22.76;36.23
69689;BME280;56932;38.402;-96.176;2022-08-01T12:56:00;97581.79;;;22.76;35.55
69689;BME280;56932;38.402;-96.176;2022-08-01T12:58:31;97581.05;;;23.22;35.27
69689;BME280;56932;38.402;-96.176;2022-08-01T13:03:18;97579.45;;;23.01;35.23
69689;BME280;56932;38.402;-96.176;2022-08-01T13:05:44;97579.54;;;22.73;35.67
69689;BME280;56932;38.402;-96.176;2022-08-01T13:08:10;97579.65;;;22.84;35.84